Airfield :
LOGIN :

Register | Disclaimer

   EN    FR    IT 

 










Legend :    VFR   Marginal VFR   IFR   Intensive IFR   Very Intensive IFR
Visi :
Ceiling :
>= 8 km
>= 3000ft
5 to 8 km
1000 to 3000 ft
1500m to 5 km
500 to 1000 ft
800 to 1500m
200 to 500 ft
< 800m
< 200 ft
Symbols :   Thunderstorms  Fog  Heavy snow  Heavy precipitations  Wind > 20 kt
SIGMETs :     Misc.  Thunderstorms  Icing  Turbulence  Mountain Waves  Volcanic Ashes







- Airport Elevation : 545 ft
- IATA code : PZY


LZPP - Piešťany

CURRENT METAR :
  • 251000Z 19006KT 140V220 CAVOK 22/13 Q1013

EXPIRED METARs :
  • 250930Z 19006KT 150V220 CAVOK 21/13 Q1013
  • 250900Z 20008KT CAVOK 20/13 Q1014
  • 250830Z 18006KT 130V220 CAVOK 19/13 Q1014
  • 250800Z VRB02KT CAVOK 18/12 Q1014
  • 250730Z VRB01KT CAVOK 16/11 Q1014

TAF TAF LZPP
Valid from the 25 at 09:00 until the 25 at 18:00 UTC


250800Z 2509/2518 01004KT CAVOK
BECMG 2509/2511 21010KT 9999 SCT050
No reported NOTAMs for that airfield.



MET'MAP, your aeronautical weather chart ! - Copyright ORBIFLY December 2007 - Disclaimer

ORBIFLY MET'MAP TEAM :

Programming & Development : Alexandra Zaïnal
Concept & Development : Baudouin d'Aumeries
Co-Development & Prog : Marc-Olivier Méhu
Technical & hardware support : Manuel Goepfert

Contact : metmap@orbifly.com




SOURCES & CREDITS :

   NOAA